createdAt,value
2023-05-09T00:02:07.958Z,9.95
2023-05-09T00:04:37.482Z,9.94
2023-05-09T00:07:05.843Z,9.92
2023-05-09T00:09:33.988Z,9.92
2023-05-09T00:12:02.617Z,9.91
2023-05-09T00:14:30.833Z,9.88
2023-05-09T00:16:59.337Z,9.87
2023-05-09T00:19:27.626Z,9.86
2023-05-09T00:21:57.225Z,9.87
2023-05-09T00:24:25.391Z,9.85
2023-05-09T00:26:53.539Z,9.80
2023-05-09T00:29:21.697Z,9.76
2023-05-09T00:31:49.760Z,9.72
2023-05-09T00:34:18.051Z,9.70
2023-05-09T00:36:46.077Z,9.69
2023-05-09T00:39:15.904Z,9.68
2023-05-09T00:41:44.260Z,9.69
2023-05-09T00:44:12.457Z,9.72
2023-05-09T00:46:40.829Z,9.75
2023-05-09T00:49:08.996Z,9.75
2023-05-09T00:51:37.908Z,9.80
2023-05-09T00:54:08.466Z,9.82
2023-05-09T00:56:38.726Z,9.86
2023-05-09T00:59:07.485Z,9.87
2023-05-09T01:01:36.645Z,9.86
2023-05-09T01:04:05.456Z,9.85
2023-05-09T01:06:39.897Z,9.83
2023-05-09T01:09:16.480Z,9.82
2023-05-09T01:11:54.470Z,9.83
2023-05-09T01:14:31.248Z,9.83
2023-05-09T01:17:06.759Z,9.82
2023-05-09T01:19:53.248Z,9.85
2023-05-09T01:22:24.149Z,9.83
2023-05-09T01:25:14.302Z,9.83
2023-05-09T01:27:52.217Z,9.83
2023-05-09T01:30:21.987Z,9.81
2023-05-09T01:32:53.346Z,9.82
2023-05-09T01:35:25.261Z,9.78
2023-05-09T01:37:55.156Z,9.76
2023-05-09T01:40:27.072Z,9.76
2023-05-09T01:43:00.860Z,9.75
2023-05-09T01:45:32.439Z,9.74
2023-05-09T01:48:01.925Z,9.71
2023-05-09T01:50:31.940Z,9.68
2023-05-09T01:53:02.557Z,9.65
2023-05-09T01:55:34.738Z,9.63
2023-05-09T01:58:06.061Z,9.57
2023-05-09T02:00:36.612Z,9.50
2023-05-09T02:03:05.523Z,9.43
2023-05-09T02:05:34.692Z,9.38
2023-05-09T02:08:02.869Z,9.36
2023-05-09T02:10:36.292Z,9.36
2023-05-09T02:13:06.942Z,9.36
2023-05-09T02:15:36.600Z,9.36
2023-05-09T02:18:04.915Z,9.38
2023-05-09T02:20:35.847Z,9.34
2023-05-09T02:23:04.542Z,9.27
2023-05-09T02:25:33.478Z,9.17
2023-05-09T02:28:03.609Z,9.13
2023-05-09T02:30:37.917Z,9.08
2023-05-09T02:33:08.767Z,9.02
2023-05-09T02:35:37.890Z,8.96
2023-05-09T02:38:06.676Z,8.90
2023-05-09T02:40:37.304Z,8.84
2023-05-09T02:43:05.421Z,8.80
2023-05-09T02:45:33.989Z,8.80
2023-05-09T02:48:07.802Z,8.75
2023-05-09T02:50:38.371Z,8.74
2023-05-09T02:53:07.229Z,8.73
2023-05-09T02:55:35.633Z,8.68
2023-05-09T02:58:13.453Z,8.62
2023-05-09T03:00:44.201Z,8.55
2023-05-09T03:03:17.858Z,8.52
2023-05-09T03:05:46.776Z,8.46
2023-05-09T03:08:14.877Z,8.44
2023-05-09T03:10:43.043Z,8.41
2023-05-09T03:13:11.271Z,8.36
2023-05-09T03:15:39.552Z,8.36
2023-05-09T03:18:09.403Z,8.35
2023-05-09T03:20:38.906Z,8.33
2023-05-09T03:23:07.238Z,8.31
2023-05-09T03:25:35.385Z,8.27
2023-05-09T03:28:03.425Z,8.20
2023-05-09T03:30:31.614Z,8.19
2023-05-09T03:33:00.129Z,8.19
2023-05-09T03:35:28.412Z,8.25
2023-05-09T03:37:58.205Z,8.21
2023-05-09T03:40:26.581Z,8.13
2023-05-09T03:43:05.786Z,8.01
2023-05-09T03:45:35.892Z,7.96
2023-05-09T03:48:08.586Z,7.86
2023-05-09T03:50:40.148Z,7.79
2023-05-09T03:53:10.853Z,7.78
2023-05-09T03:55:40.070Z,7.75
2023-05-09T03:58:09.030Z,7.69
2023-05-09T04:00:39.614Z,7.63
2023-05-09T04:03:13.131Z,7.62
2023-05-09T04:05:45.810Z,7.67
2023-05-09T04:08:24.220Z,7.63
2023-05-09T04:10:52.496Z,7.59
2023-05-09T04:13:20.574Z,7.58
2023-05-09T04:15:48.871Z,7.58
2023-05-09T04:18:16.972Z,7.57
2023-05-09T04:20:46.450Z,7.55
2023-05-09T04:23:16.350Z,7.53
2023-05-09T04:25:46.073Z,7.55
2023-05-09T04:28:14.157Z,7.55
2023-05-09T04:30:42.416Z,7.56
2023-05-09T04:33:11.339Z,7.55
2023-05-09T04:35:39.772Z,7.55
2023-05-09T04:38:08.409Z,7.57
2023-05-09T04:40:37.552Z,7.61
2023-05-09T04:43:07.314Z,7.65
2023-05-09T04:45:35.391Z,7.68
2023-05-09T04:48:04.056Z,7.69
2023-05-09T04:50:32.402Z,7.68
2023-05-09T04:53:00.538Z,7.61
2023-05-09T04:55:28.781Z,7.58
2023-05-09T04:57:57.777Z,7.57
2023-05-09T05:00:27.673Z,7.54
2023-05-09T05:02:56.222Z,7.54
2023-05-09T05:05:27.234Z,7.52
2023-05-09T05:07:56.180Z,7.50
2023-05-09T05:10:30.282Z,7.49
2023-05-09T05:13:06.780Z,7.57
2023-05-09T05:15:37.992Z,7.61
2023-05-09T05:18:07.165Z,7.68
2023-05-09T05:20:36.654Z,7.75
2023-05-09T05:23:04.723Z,7.84
2023-05-09T05:25:33.312Z,7.88
2023-05-09T05:28:02.366Z,8.00
2023-05-09T05:30:32.768Z,8.13
2023-05-09T05:33:04.338Z,8.20
2023-05-09T05:35:32.493Z,8.31
2023-05-09T05:38:01.275Z,8.40
2023-05-09T05:40:29.744Z,8.47
2023-05-09T05:43:01.438Z,8.49
2023-05-09T05:45:31.082Z,8.53
2023-05-09T05:48:02.517Z,8.58
2023-05-09T05:50:34.027Z,8.63
2023-05-09T05:53:02.177Z,8.64
2023-05-09T05:55:30.322Z,8.67
2023-05-09T05:57:58.597Z,8.74
2023-05-09T06:00:26.795Z,8.80
2023-05-09T06:03:01.946Z,8.86
2023-05-09T06:05:38.956Z,8.89
2023-05-09T06:08:07.656Z,8.91
2023-05-09T06:10:36.152Z,8.91
2023-05-09T06:13:04.360Z,8.93
2023-05-09T06:15:32.787Z,8.98
2023-05-09T06:18:01.930Z,8.97
2023-05-09T06:20:30.076Z,8.98
2023-05-09T06:22:59.405Z,8.99
2023-05-09T06:25:27.433Z,9.03
2023-05-09T06:27:55.638Z,9.05
2023-05-09T06:30:26.776Z,9.22
2023-05-09T06:32:55.731Z,9.42
2023-05-09T06:35:23.881Z,9.53
2023-05-09T06:37:51.855Z,9.60
2023-05-09T06:40:21.429Z,9.66
2023-05-09T06:42:49.460Z,9.75
2023-05-09T06:45:18.059Z,9.79
2023-05-09T06:47:46.333Z,9.82
2023-05-09T06:50:14.534Z,9.87
2023-05-09T06:52:42.597Z,9.90
2023-05-09T06:55:12.191Z,9.93
2023-05-09T06:57:41.840Z,10.01
2023-05-09T07:00:10.813Z,10.07
2023-05-09T07:02:41.981Z,10.15
2023-05-09T07:05:11.291Z,10.20
2023-05-09T07:07:39.522Z,10.21
2023-05-09T07:10:11.892Z,10.21
2023-05-09T07:12:42.027Z,10.29
2023-05-09T07:15:11.431Z,10.36
2023-05-09T07:17:39.742Z,10.40
2023-05-09T07:20:09.336Z,10.40
2023-05-09T07:22:37.888Z,10.41
2023-05-09T07:25:08.530Z,10.44
2023-05-09T07:27:36.761Z,10.48
2023-05-09T07:30:06.718Z,10.47
2023-05-09T07:32:34.932Z,10.40
2023-05-09T07:35:04.142Z,10.36
2023-05-09T07:37:32.952Z,10.35
2023-05-09T07:40:01.589Z,10.34
2023-05-09T07:42:30.344Z,10.38
2023-05-09T07:44:59.175Z,10.44
2023-05-09T07:47:28.734Z,10.54
2023-05-09T07:49:56.838Z,10.62
2023-05-09T07:52:25.491Z,10.69
2023-05-09T07:54:54.674Z,10.76
2023-05-09T07:57:23.411Z,10.80
2023-05-09T07:59:51.876Z,10.79
2023-05-09T08:02:20.090Z,10.86
2023-05-09T08:04:49.694Z,10.86
2023-05-09T08:07:17.835Z,10.88
2023-05-09T08:09:45.966Z,10.97
2023-05-09T08:12:14.157Z,11.04
2023-05-09T08:14:42.257Z,11.14
2023-05-09T08:17:10.920Z,11.09
2023-05-09T08:19:39.043Z,11.02
2023-05-09T08:22:08.611Z,11.01
2023-05-09T08:24:36.781Z,10.94
2023-05-09T08:27:04.934Z,10.85
2023-05-09T08:29:33.041Z,10.81
2023-05-09T08:32:01.349Z,10.85
2023-05-09T08:34:31.330Z,11.01
2023-05-09T08:36:59.469Z,11.15
2023-05-09T08:39:29.024Z,11.11
2023-05-09T08:42:00.542Z,11.14
2023-05-09T08:44:30.275Z,11.17
2023-05-09T08:47:01.742Z,11.28
2023-05-09T08:49:30.471Z,11.40
2023-05-09T08:51:59.105Z,11.49
2023-05-09T08:54:30.015Z,11.58
2023-05-09T08:56:59.282Z,11.61
2023-05-09T08:59:28.144Z,11.62
2023-05-09T09:01:56.570Z,11.58
2023-05-09T09:04:24.726Z,11.63
2023-05-09T09:06:54.911Z,11.73
2023-05-09T09:09:24.335Z,11.96
2023-05-09T09:11:55.491Z,12.11
2023-05-09T09:14:26.714Z,12.15
2023-05-09T09:16:58.287Z,12.10
2023-05-09T09:19:31.999Z,12.03
2023-05-09T09:22:01.041Z,11.96
2023-05-09T09:24:29.154Z,11.93
2023-05-09T09:26:58.547Z,11.91
2023-05-09T09:29:28.803Z,12.10
2023-05-09T09:31:57.019Z,12.21
2023-05-09T09:34:25.136Z,12.27
2023-05-09T09:36:53.319Z,12.25
2023-05-09T09:39:23.126Z,12.22
2023-05-09T09:41:51.449Z,12.28
2023-05-09T09:44:22.474Z,12.37
2023-05-09T09:46:51.969Z,12.35
2023-05-09T09:49:21.696Z,12.34
2023-05-09T09:51:53.218Z,12.32
2023-05-09T09:54:21.999Z,12.33
2023-05-09T09:56:54.470Z,12.32
2023-05-09T09:59:26.089Z,12.34
2023-05-09T10:01:58.411Z,12.36
2023-05-09T10:04:31.066Z,12.35
2023-05-09T10:07:00.719Z,12.36
2023-05-09T10:09:29.340Z,12.35
2023-05-09T10:11:58.373Z,12.33
2023-05-09T10:14:27.912Z,12.26
2023-05-09T10:16:58.022Z,12.25
2023-05-09T10:19:28.634Z,12.24
2023-05-09T10:21:58.464Z,12.26
2023-05-09T10:24:30.874Z,12.38
2023-05-09T10:27:05.311Z,12.51
2023-05-09T10:29:39.487Z,12.63
2023-05-09T10:32:16.623Z,12.73
2023-05-09T10:34:49.117Z,12.77
2023-05-09T10:37:17.917Z,12.82
2023-05-09T10:39:47.604Z,12.86
2023-05-09T10:42:16.681Z,13.01
2023-05-09T10:44:47.875Z,13.22
2023-05-09T10:47:16.845Z,13.30
2023-05-09T10:49:45.801Z,13.23
2023-05-09T10:52:15.162Z,13.22
2023-05-09T10:54:43.284Z,13.13
2023-05-09T10:57:13.092Z,13.13
2023-05-09T10:59:43.267Z,13.29
2023-05-09T11:02:17.100Z,13.71
2023-05-09T11:04:46.029Z,13.92
2023-05-09T11:07:32.683Z,14.13
2023-05-09T11:10:09.133Z,14.08
2023-05-09T11:12:57.582Z,14.12
2023-05-09T11:15:27.694Z,14.23
2023-05-09T11:18:08.777Z,14.60
2023-05-09T11:20:37.520Z,15.14
2023-05-09T11:23:07.138Z,15.44
2023-05-09T11:25:36.129Z,15.34
2023-05-09T11:28:04.321Z,15.46
2023-05-09T11:30:41.740Z,15.39
2023-05-09T11:33:24.993Z,14.91
2023-05-09T11:36:18.703Z,14.51
2023-05-09T11:38:48.290Z,14.32
2023-05-09T11:41:16.680Z,14.29
2023-05-09T11:43:45.624Z,14.33
2023-05-09T11:46:13.858Z,14.52
2023-05-09T11:48:43.461Z,14.70
2023-05-09T11:51:18.685Z,15.14
2023-05-09T11:53:50.580Z,15.39
2023-05-09T11:56:19.398Z,15.54
2023-05-09T11:58:47.502Z,15.26
2023-05-09T12:01:15.750Z,15.09
2023-05-09T12:03:46.444Z,14.93
2023-05-09T12:06:17.584Z,14.77
2023-05-09T12:08:46.311Z,14.61
2023-05-09T12:11:15.243Z,14.50
2023-05-09T12:13:48.041Z,14.33
2023-05-09T12:16:17.183Z,14.11
2023-05-09T12:18:48.850Z,14.14
2023-05-09T12:21:17.512Z,14.40
2023-05-09T12:23:46.727Z,14.67
2023-05-09T12:26:16.462Z,14.88
2023-05-09T12:28:44.966Z,14.91
2023-05-09T12:31:13.905Z,14.93
2023-05-09T12:33:42.272Z,14.90
2023-05-09T12:36:13.658Z,14.79
2023-05-09T12:38:42.677Z,14.76
2023-05-09T12:41:30.917Z,14.71
2023-05-09T12:44:01.203Z,14.81
2023-05-09T12:46:29.495Z,14.98
2023-05-09T12:48:57.705Z,15.05
2023-05-09T12:51:26.999Z,15.09
2023-05-09T12:53:55.147Z,15.13
2023-05-09T12:56:24.181Z,15.34
2023-05-09T12:58:53.792Z,15.55
2023-05-09T13:01:24.571Z,15.57
2023-05-09T13:03:53.481Z,15.44
2023-05-09T13:06:21.877Z,15.36
2023-05-09T13:09:01.545Z,15.31
2023-05-09T13:11:30.662Z,15.17
2023-05-09T13:13:59.601Z,15.03
2023-05-09T13:16:28.104Z,14.98
2023-05-09T13:18:56.181Z,14.94
2023-05-09T13:21:24.391Z,14.85
2023-05-09T13:23:52.430Z,14.73
2023-05-09T13:26:22.448Z,14.81
2023-05-09T13:28:50.783Z,14.79
2023-05-09T13:31:19.693Z,14.79
2023-05-09T13:33:50.847Z,14.89
2023-05-09T13:36:20.246Z,15.14
2023-05-09T13:38:48.471Z,15.52
2023-05-09T13:41:20.859Z,15.77
2023-05-09T13:43:50.398Z,16.44
2023-05-09T13:46:18.607Z,17.16
2023-05-09T13:48:47.813Z,16.94
2023-05-09T13:51:16.037Z,16.39
2023-05-09T13:53:44.149Z,15.77
2023-05-09T13:56:12.323Z,15.03
2023-05-09T13:58:40.638Z,14.20
2023-05-09T14:01:10.112Z,13.52
2023-05-09T14:03:38.335Z,12.90
2023-05-09T14:06:06.659Z,12.44
2023-05-09T14:08:34.777Z,12.31
2023-05-09T14:11:03.030Z,12.28
2023-05-09T14:13:32.141Z,12.19
2023-05-09T14:16:00.417Z,11.90
2023-05-09T14:18:29.940Z,11.39
2023-05-09T14:20:59.110Z,10.99
2023-05-09T14:23:27.390Z,10.69
2023-05-09T14:25:55.448Z,10.52
2023-05-09T14:28:24.150Z,10.46
2023-05-09T14:30:52.198Z,10.45
2023-05-09T14:33:20.412Z,10.47
2023-05-09T14:35:49.815Z,10.45
2023-05-09T14:38:18.014Z,10.44
2023-05-09T14:40:46.060Z,10.42
2023-05-09T14:43:14.180Z,10.47
2023-05-09T14:45:42.213Z,10.44
2023-05-09T14:48:10.723Z,10.44
2023-05-09T14:50:38.860Z,10.48
2023-05-09T14:53:08.402Z,10.49
2023-05-09T14:55:36.566Z,10.60
2023-05-09T14:58:04.741Z,10.77
2023-05-09T15:00:34.130Z,11.01
2023-05-09T15:03:02.312Z,11.25
2023-05-09T15:05:30.402Z,11.52
2023-05-09T15:07:58.551Z,11.65
2023-05-09T15:10:27.996Z,11.62
2023-05-09T15:12:56.381Z,11.54
2023-05-09T15:15:24.869Z,11.51
2023-05-09T15:17:53.592Z,11.46
2023-05-09T15:20:21.867Z,11.48
2023-05-09T15:22:51.180Z,11.51
2023-05-09T15:25:19.769Z,11.50
2023-05-09T15:27:50.595Z,11.49
2023-05-09T15:30:18.858Z,11.48
2023-05-09T15:32:46.985Z,11.44
2023-05-09T15:35:15.927Z,11.36
2023-05-09T15:37:44.019Z,11.31
2023-05-09T15:40:13.307Z,11.30
2023-05-09T15:42:41.490Z,11.30
2023-05-09T15:45:11.398Z,11.34
2023-05-09T15:47:39.516Z,11.43
2023-05-09T15:50:09.016Z,11.54
2023-05-09T15:52:37.400Z,11.64
2023-05-09T15:55:06.271Z,11.67
2023-05-09T15:57:34.547Z,11.80
2023-05-09T16:00:05.616Z,11.90
2023-05-09T16:02:44.289Z,11.94
2023-05-09T16:05:13.057Z,11.97
2023-05-09T16:07:45.189Z,12.03
2023-05-09T16:10:14.053Z,12.13
2023-05-09T16:12:44.744Z,12.20
2023-05-09T16:15:13.251Z,12.10
2023-05-09T16:17:43.507Z,12.07
2023-05-09T16:20:13.873Z,12.15
2023-05-09T16:22:42.401Z,12.20
2023-05-09T16:25:10.702Z,12.23
2023-05-09T16:27:39.762Z,12.22
2023-05-09T16:30:08.832Z,12.13
2023-05-09T16:32:37.034Z,12.09
2023-05-09T16:35:07.473Z,12.09
2023-05-09T16:37:35.928Z,12.13
2023-05-09T16:40:04.475Z,12.16
2023-05-09T16:42:33.029Z,12.18
2023-05-09T16:45:01.140Z,12.19
2023-05-09T16:47:29.380Z,12.21
2023-05-09T16:49:57.452Z,12.28
2023-05-09T16:52:26.860Z,12.41
2023-05-09T16:54:55.362Z,12.51
2023-05-09T16:57:23.583Z,12.61
2023-05-09T16:59:51.648Z,12.78
2023-05-09T17:02:19.831Z,12.85
2023-05-09T17:04:48.401Z,12.89
2023-05-09T17:07:17.243Z,12.88
2023-05-09T17:09:48.329Z,12.82
2023-05-09T17:12:18.292Z,12.79
2023-05-09T17:14:46.702Z,12.76
2023-05-09T17:17:17.611Z,12.81
2023-05-09T17:19:45.881Z,12.77
2023-05-09T17:22:14.010Z,12.79
2023-05-09T17:24:42.231Z,12.78
2023-05-09T17:27:11.861Z,12.84
2023-05-09T17:29:39.959Z,12.85
2023-05-09T17:32:08.101Z,12.80
2023-05-09T17:34:36.220Z,12.68
2023-05-09T17:37:05.762Z,12.54
2023-05-09T17:39:34.070Z,12.47
2023-05-09T17:42:03.243Z,12.32
2023-05-09T17:44:32.834Z,12.12
2023-05-09T17:47:01.139Z,11.94
2023-05-09T17:49:29.964Z,11.76
2023-05-09T17:51:58.170Z,11.60
2023-05-09T17:54:26.281Z,11.46
2023-05-09T17:56:59.113Z,11.35
2023-05-09T17:59:27.650Z,11.23
2023-05-09T18:01:57.096Z,11.11
2023-05-09T18:04:25.798Z,11.05
2023-05-09T18:06:54.244Z,10.99
2023-05-09T18:09:22.789Z,10.94
2023-05-09T18:11:50.850Z,10.88
2023-05-09T18:14:18.993Z,10.83
2023-05-09T18:16:47.048Z,10.82
2023-05-09T18:19:16.619Z,10.80
2023-05-09T18:21:44.696Z,10.77
2023-05-09T18:24:13.955Z,10.80
2023-05-09T18:26:43.078Z,10.80
2023-05-09T18:29:11.423Z,10.79
2023-05-09T18:31:41.495Z,10.76
2023-05-09T18:34:10.348Z,10.74
2023-05-09T18:36:39.950Z,10.72
2023-05-09T18:39:08.882Z,10.69
2023-05-09T18:41:37.055Z,10.69
2023-05-09T18:44:05.371Z,10.67
2023-05-09T18:46:34.021Z,10.63
2023-05-09T18:49:03.492Z,10.57
2023-05-09T18:51:34.024Z,10.53
2023-05-09T18:54:03.630Z,10.48
2023-05-09T18:56:31.789Z,10.41
2023-05-09T18:59:00.282Z,10.39
2023-05-09T19:01:29.328Z,10.32
2023-05-09T19:03:58.495Z,10.27
2023-05-09T19:06:27.058Z,10.22
2023-05-09T19:08:55.230Z,10.17
2023-05-09T19:11:25.037Z,10.16
2023-05-09T19:13:53.336Z,10.13
2023-05-09T19:16:22.635Z,10.11
2023-05-09T19:18:51.432Z,10.07
2023-05-09T19:21:20.613Z,10.05
2023-05-09T19:23:49.312Z,9.99
2023-05-09T19:26:17.965Z,9.98
2023-05-09T19:28:47.978Z,9.97
2023-05-09T19:31:16.702Z,9.94
2023-05-09T19:33:46.284Z,9.92
2023-05-09T19:36:14.461Z,9.90
2023-05-09T19:38:42.520Z,9.87
2023-05-09T19:41:12.935Z,9.86
2023-05-09T19:43:41.384Z,9.85
2023-05-09T19:46:11.891Z,9.79
2023-05-09T19:48:40.024Z,9.72
2023-05-09T19:51:08.878Z,9.70
2023-05-09T19:53:37.026Z,9.68
2023-05-09T19:56:07.947Z,9.69
2023-05-09T19:58:36.501Z,9.65
2023-05-09T20:01:07.334Z,9.62
2023-05-09T20:03:38.745Z,9.61
2023-05-09T20:06:09.175Z,9.58
2023-05-09T20:08:37.609Z,9.54
2023-05-09T20:11:06.577Z,9.52
2023-05-09T20:13:34.949Z,9.52
2023-05-09T20:16:04.347Z,9.52
2023-05-09T20:18:33.661Z,9.49
2023-05-09T20:21:09.821Z,9.46
2023-05-09T20:23:39.649Z,9.41
2023-05-09T20:26:07.709Z,9.37
2023-05-09T20:28:35.784Z,9.35
2023-05-09T20:31:04.358Z,9.30
2023-05-09T20:33:32.573Z,9.24
2023-05-09T20:36:02.820Z,9.20
2023-05-09T20:38:30.964Z,9.16
2023-05-09T20:40:59.092Z,9.15
2023-05-09T20:43:27.283Z,9.14
2023-05-09T20:45:55.373Z,9.10
2023-05-09T20:48:23.783Z,9.05
2023-05-09T20:50:51.935Z,9.01
2023-05-09T20:53:22.452Z,8.96
2023-05-09T20:55:50.749Z,8.90
2023-05-09T20:58:19.054Z,8.81
2023-05-09T21:00:47.664Z,8.78
2023-05-09T21:03:15.906Z,8.77
2023-05-09T21:05:44.535Z,8.74
2023-05-09T21:08:12.778Z,8.72
2023-05-09T21:10:42.106Z,8.79
2023-05-09T21:13:10.359Z,8.84
2023-05-09T21:15:38.392Z,8.88
2023-05-09T21:18:06.748Z,8.87
2023-05-09T21:20:34.749Z,8.87
2023-05-09T21:23:02.897Z,8.85
2023-05-09T21:25:30.948Z,8.85
2023-05-09T21:28:00.397Z,8.85
2023-05-09T21:30:28.639Z,8.84
2023-05-09T21:32:56.819Z,8.86
2023-05-09T21:35:25.048Z,8.87
2023-05-09T21:37:53.205Z,8.88
2023-05-09T21:40:21.240Z,8.87
2023-05-09T21:42:49.324Z,8.86
2023-05-09T21:45:19.172Z,8.89
2023-05-09T21:47:47.450Z,8.91
2023-05-09T21:50:15.751Z,8.93
2023-05-09T21:52:43.991Z,8.93
2023-05-09T21:55:12.030Z,8.95
2023-05-09T21:57:40.160Z,8.99
2023-05-09T22:00:13.856Z,9.03
2023-05-09T22:02:43.871Z,9.09
2023-05-09T22:05:12.930Z,9.17
2023-05-09T22:07:41.060Z,9.21
2023-05-09T22:10:09.982Z,9.28
2023-05-09T22:12:38.184Z,9.32
2023-05-09T22:15:07.001Z,9.34
2023-05-09T22:17:35.152Z,9.38
2023-05-09T22:20:04.805Z,9.38
2023-05-09T22:22:33.334Z,9.37
2023-05-09T22:25:01.453Z,9.36
2023-05-09T22:27:29.563Z,9.33
2023-05-09T22:29:57.579Z,9.30
2023-05-09T22:32:25.659Z,9.22
2023-05-09T22:34:55.176Z,9.17
2023-05-09T22:37:24.592Z,9.13
2023-05-09T22:39:52.896Z,9.09
2023-05-09T22:42:21.036Z,9.04
2023-05-09T22:44:49.873Z,8.99
2023-05-09T22:47:18.066Z,8.95
2023-05-09T22:49:46.248Z,8.91
2023-05-09T22:52:14.416Z,8.87
2023-05-09T22:54:44.023Z,8.82
2023-05-09T22:57:12.607Z,8.78
2023-05-09T22:59:40.792Z,8.70
2023-05-09T23:02:09.368Z,8.63
2023-05-09T23:04:37.530Z,8.56
2023-05-09T23:07:05.804Z,8.51
2023-05-09T23:09:34.810Z,8.43
2023-05-09T23:12:04.510Z,8.37
2023-05-09T23:14:32.793Z,8.29
2023-05-09T23:17:01.070Z,8.23
2023-05-09T23:19:29.137Z,8.17
2023-05-09T23:21:58.551Z,8.15
2023-05-09T23:24:26.912Z,8.13
2023-05-09T23:26:55.398Z,8.11
2023-05-09T23:29:25.228Z,8.07
2023-05-09T23:31:53.487Z,8.05
2023-05-09T23:34:21.660Z,8.02
2023-05-09T23:36:49.837Z,8.00
2023-05-09T23:39:18.209Z,8.06
2023-05-09T23:41:46.376Z,8.08
2023-05-09T23:44:14.768Z,8.11
2023-05-09T23:46:44.277Z,8.12
2023-05-09T23:49:13.304Z,8.10
2023-05-09T23:51:41.840Z,8.11
2023-05-09T23:54:10.005Z,8.12
2023-05-09T23:56:38.265Z,8.14
2023-05-09T23:59:06.354Z,8.14
